Sanko Independence — A8QJ9 — position and weather

sailwx.info

Track history (hours):
 
Tides and Currents Weather Stations Pressure Air Temp Water Temp Dewpoint Dewpoint Depression Visibility Wind Speed Wind Dir Waves Ship Positions

Sanko Independence

Last reported at 2014-Oct-15 09:22 UTC. Time now 2014-Oct-25 09:27 UTC.
Position N 37°20' W 011°42'.
Warning: this ship's position is 10 days out of date.

Length 174 m; draft 9.6 m.

Type: Ship (hazmat cat C). MMSI: 636013946.

Date/timePositionNaut miles runAvg speedWind from/ knotsBaromVisibWave heightAir tempDewpointWater temp
2014-Oct-15 09:22N 37°20' W 011°42'3014.3
2014-Oct-15 07:17N 37°49' W 011°37'1114.2
2014-Oct-15 06:31N 38°00' W 011°35'2913.9
2014-Oct-15 04:25N 38°29' W 011°29'  
2014-Oct-12 15:28N 50°16' W 001°23'2418.6
2014-Oct-12 14:12N 50°23' W 000°48'3415.9
2014-Oct-12 12:05N 50°32' E 000°04'814.5
2014-Oct-12 11:33N 50°34' E 000°15'1413.9
2014-Oct-12 10:33N 50°39' E 000°36'2116.1
2014-Oct-12 09:17N 50°48' E 001°05'1318.2
2014-Oct-12 08:33N 50°57' E 001°20'1818.4
2014-Oct-12 07:34N 51°11' E 001°39'1616.2
2014-Oct-12 06:33N 51°24' E 001°55'1515.2
2014-Oct-12 05:33N 51°36' E 002°09'1514.5
2014-Oct-12 04:32N 51°47' E 002°26'1313.4
2014-Oct-12 03:33N 51°58' E 002°36'20515.7
2014-Oct-11 14:26N 55°01' E 005°14'1415.7
2014-Oct-11 13:32N 55°13' E 005°26'19414.4
2014-Oct-11 00:05N 57°42' E 009°10'814.3
2014-Oct-10 23:33N 57°45' E 009°24'1414.3
2014-Oct-10 22:32N 57°47' E 009°51'1414.6
2014-Oct-10 21:33N 57°47' E 010°18'1413.6
2014-Oct-10 20:33N 57°48' E 010°43'6 6.0
2014-Oct-10 19:34N 57°42' E 010°41'0 0.3
2014-Oct-10 18:28N 57°42' E 010°40'0 0.0
2014-Oct-10 17:22N 57°42' E 010°40'0 0.0
2014-Oct-10 16:31N 57°42' E 010°40'0 0.0
2014-Oct-10 15:31N 57°42' E 010°40'0 0.0
2014-Oct-10 14:31N 57°42' E 010°40'0 0.0
2014-Oct-10 13:31N 57°42' E 010°40'0 0.0
2014-Oct-10 12:31N 57°42' E 010°40'0 0.0
2014-Oct-10 11:31N 57°42' E 010°40'0 0.0
2014-Oct-10 10:31N 57°42' E 010°40'0 0.0
2014-Oct-10 09:22N 57°42' E 010°40'0 0.0
2014-Oct-10 08:25N 57°42' E 010°40'0 0.0
2014-Oct-10 07:28N 57°42' E 010°40'0 0.0
2014-Oct-10 06:31N 57°42' E 010°40'0 0.0
2014-Oct-10 05:31N 57°42' E 010°40'0 0.0
2014-Oct-10 04:31N 57°42' E 010°40'0 0.0
2014-Oct-10 03:31N 57°42' E 010°40'0 0.0
2014-Oct-10 02:28N 57°42' E 010°40'0 0.0
2014-Oct-10 01:31N 57°42' E 010°40'0 0.0
2014-Oct-10 00:28N 57°42' E 010°40'0 0.0
2014-Oct-09 23:25N 57°42' E 010°40'0 0.0
2014-Oct-09 22:31N 57°42' E 010°40'0 0.0
2014-Oct-09 21:31N 57°42' E 010°40'0 0.0
2014-Oct-09 20:31N 57°42' E 010°40'0 0.0
2014-Oct-09 19:28N 57°42' E 010°40'0 0.0
2014-Oct-09 18:31N 57°42' E 010°40'0 0.0
2014-Oct-09 17:31N 57°42' E 010°40'0 0.0
2014-Oct-09 16:31N 57°42' E 010°40'0 0.0
2014-Oct-09 15:31N 57°42' E 010°40'0 0.0
2014-Oct-09 14:31N 57°42' E 010°40'0 0.0
2014-Oct-09 13:31N 57°42' E 010°40'0 0.0
2014-Oct-09 12:31N 57°42' E 010°40'0 0.0
2014-Oct-09 11:31N 57°42' E 010°40'0 0.0
2014-Oct-09 10:31N 57°42' E 010°40'0 0.0
2014-Oct-09 09:31N 57°42' E 010°40'0 0.0
2014-Oct-09 08:31N 57°42' E 010°40'0 0.0
2014-Oct-09 07:25N 57°42' E 010°40'0 0.0
2014-Oct-09 06:28N 57°42' E 010°40'0 0.0
2014-Oct-09 05:33N 57°42' E 010°40'8 7.5
2014-Oct-09 04:33N 57°47' E 010°51'9 9.2
2014-Oct-09 03:33N 57°49' E 011°08'1111.4
2014-Oct-09 02:33N 57°52' E 011°28'1010.3
2014-Oct-09 01:34N 57°59' E 011°44'7 7.2
2014-Oct-09 00:34N 58°05' E 011°48'0 0.4
2014-Oct-08 23:28N 58°05' E 011°49'0 0.0
2014-Oct-08 22:31N 58°05' E 011°49'0 0.0
2014-Oct-08 21:31N 58°05' E 011°49'0 0.0
2014-Oct-08 20:07N 58°05' E 011°49'0 0.0
2014-Oct-08 19:19N 58°05' E 011°49'0 0.0
2014-Oct-08 18:31N 58°05' E 011°49'0 0.0
2014-Oct-08 17:22N 58°05' E 011°49'0 0.0
2014-Oct-08 16:28N 58°05' E 011°49'0 0.0
2014-Oct-08 15:25N 58°05' E 011°49'0 0.0
2014-Oct-08 14:28N 58°05' E 011°49'0 0.0
2014-Oct-08 13:34N 58°05' E 011°49'0 0.0
2014-Oct-08 12:28N 58°05' E 011°49'0 0.0
2014-Oct-08 11:28N 58°05' E 011°49'0 0.0
2014-Oct-08 10:22N 58°05' E 011°49'0 0.0
2014-Oct-08 09:31N 58°05' E 011°49'0 0.0
2014-Oct-08 08:22N 58°05' E 011°49'0 0.0
2014-Oct-08 07:31N 58°05' E 011°49'0 0.0
2014-Oct-08 06:33N 58°05' E 011°49'3 2.8
2014-Oct-08 05:34N 58°03' E 011°48'8 8.4
2014-Oct-08 04:34N 57°55' E 011°39'9 8.8
2014-Oct-08 03:34N 57°51' E 011°25'4 3.8
2014-Oct-08 02:33N 57°52' E 011°18'2 2.5
2014-Oct-08 01:34N 57°54' E 011°20'1 1.0
2014-Oct-08 00:34N 57°54' E 011°19'2 2.3
2014-Oct-07 23:34N 57°52' E 011°16'3 2.7
2014-Oct-07 22:33N 57°50' E 011°12'2 2.3
2014-Oct-07 21:34N 57°52' E 011°13'0 0.5
2014-Oct-07 20:34N 57°52' E 011°14'2 1.5
2014-Oct-07 19:34N 57°51' E 011°15'1 0.9
2014-Oct-07 18:34N 57°51' E 011°13'1312.8
2014-Oct-07 17:34N 57°53' E 010°50'1211.7
2014-Oct-07 16:34N 57°51' E 010°28'1211.8
2014-Oct-07 15:33N 57°51' E 010°06'27311.9
2014-Oct-06 16:33N 54°18' E 005°01'1514.7
2014-Oct-06 15:34N 54°05' E 004°49'15613.6
2014-Oct-06 04:06N 51°50' E 002°39'813.6
2014-Oct-06 03:33N 51°43' E 002°32'1414.2
2014-Oct-06 02:33N 51°32' E 002°18'1514.6
2014-Oct-06 01:34N 51°20' E 002°07'1413.9
2014-Oct-06 00:33N 51°09' E 001°52'1615.8
2014-Oct-05 23:33N 50°59' E 001°33'2015.8
2014-Oct-05 22:17N 50°41' E 001°19'1216.0
2014-Oct-05 21:33N 50°33' E 001°05'1515.3
2014-Oct-05 20:33N 50°27' E 000°43'1615.9
2014-Oct-05 19:33N 50°22' E 000°19'  
Track history (hours):
 
Tides and Currents Weather Stations Pressure Air Temp Water Temp Dewpoint Dewpoint Depression Visibility Wind Speed Wind Dir Waves Ship Positions

Sanko Independence

Last reported at 2014-Oct-15 09:22 UTC. Time now 2014-Oct-25 09:27 UTC.
Position N 37°20' W 011°42'.
Warning: this ship's position is 10 days out of date.

Length 174 m; draft 9.6 m.

Type: Ship (hazmat cat C). MMSI: 636013946.

Date/timePositionNaut miles runAvg speedWind from/ knotsBaromVisibWave heightAir tempDewpointWater temp
2014-Oct-15 09:22N 37°20' W 011°42'3014.3
2014-Oct-15 07:17N 37°49' W 011°37'1114.2
2014-Oct-15 06:31N 38°00' W 011°35'2913.9
2014-Oct-15 04:25N 38°29' W 011°29'  
2014-Oct-12 15:28N 50°16' W 001°23'2418.6
2014-Oct-12 14:12N 50°23' W 000°48'3415.9
2014-Oct-12 12:05N 50°32' E 000°04'814.5
2014-Oct-12 11:33N 50°34' E 000°15'1413.9
2014-Oct-12 10:33N 50°39' E 000°36'2116.1
2014-Oct-12 09:17N 50°48' E 001°05'1318.2
2014-Oct-12 08:33N 50°57' E 001°20'1818.4
2014-Oct-12 07:34N 51°11' E 001°39'1616.2
2014-Oct-12 06:33N 51°24' E 001°55'1515.2
2014-Oct-12 05:33N 51°36' E 002°09'1514.5
2014-Oct-12 04:32N 51°47' E 002°26'1313.4
2014-Oct-12 03:33N 51°58' E 002°36'20515.7
2014-Oct-11 14:26N 55°01' E 005°14'1415.7
2014-Oct-11 13:32N 55°13' E 005°26'19414.4
2014-Oct-11 00:05N 57°42' E 009°10'814.3
2014-Oct-10 23:33N 57°45' E 009°24'1414.3
2014-Oct-10 22:32N 57°47' E 009°51'1414.6
2014-Oct-10 21:33N 57°47' E 010°18'1413.6
2014-Oct-10 20:33N 57°48' E 010°43'6 6.0
2014-Oct-10 19:34N 57°42' E 010°41'0 0.3
2014-Oct-10 18:28N 57°42' E 010°40'0 0.0
2014-Oct-10 17:22N 57°42' E 010°40'0 0.0
2014-Oct-10 16:31N 57°42' E 010°40'0 0.0
2014-Oct-10 15:31N 57°42' E 010°40'0 0.0
2014-Oct-10 14:31N 57°42' E 010°40'0 0.0
2014-Oct-10 13:31N 57°42' E 010°40'0 0.0
2014-Oct-10 12:31N 57°42' E 010°40'0 0.0
2014-Oct-10 11:31N 57°42' E 010°40'0 0.0
2014-Oct-10 10:31N 57°42' E 010°40'0 0.0
2014-Oct-10 09:22N 57°42' E 010°40'0 0.0
2014-Oct-10 08:25N 57°42' E 010°40'0 0.0
2014-Oct-10 07:28N 57°42' E 010°40'0 0.0
2014-Oct-10 06:31N 57°42' E 010°40'0 0.0
2014-Oct-10 05:31N 57°42' E 010°40'0 0.0
2014-Oct-10 04:31N 57°42' E 010°40'0 0.0
2014-Oct-10 03:31N 57°42' E 010°40'0 0.0
2014-Oct-10 02:28N 57°42' E 010°40'0 0.0
2014-Oct-10 01:31N 57°42' E 010°40'0 0.0
2014-Oct-10 00:28N 57°42' E 010°40'0 0.0
2014-Oct-09 23:25N 57°42' E 010°40'0 0.0
2014-Oct-09 22:31N 57°42' E 010°40'0 0.0
2014-Oct-09 21:31N 57°42' E 010°40'0 0.0
2014-Oct-09 20:31N 57°42' E 010°40'0 0.0
2014-Oct-09 19:28N 57°42' E 010°40'0 0.0
2014-Oct-09 18:31N 57°42' E 010°40'0 0.0
2014-Oct-09 17:31N 57°42' E 010°40'0 0.0
2014-Oct-09 16:31N 57°42' E 010°40'0 0.0
2014-Oct-09 15:31N 57°42' E 010°40'0 0.0
2014-Oct-09 14:31N 57°42' E 010°40'0 0.0
2014-Oct-09 13:31N 57°42' E 010°40'0 0.0
2014-Oct-09 12:31N 57°42' E 010°40'0 0.0
2014-Oct-09 11:31N 57°42' E 010°40'0 0.0
2014-Oct-09 10:31N 57°42' E 010°40'0 0.0
2014-Oct-09 09:31N 57°42' E 010°40'0 0.0
2014-Oct-09 08:31N 57°42' E 010°40'0 0.0
2014-Oct-09 07:25N 57°42' E 010°40'0 0.0
2014-Oct-09 06:28N 57°42' E 010°40'0 0.0
2014-Oct-09 05:33N 57°42' E 010°40'8 7.5
2014-Oct-09 04:33N 57°47' E 010°51'9 9.2
2014-Oct-09 03:33N 57°49' E 011°08'1111.4
2014-Oct-09 02:33N 57°52' E 011°28'1010.3
2014-Oct-09 01:34N 57°59' E 011°44'7 7.2
2014-Oct-09 00:34N 58°05' E 011°48'0 0.4
2014-Oct-08 23:28N 58°05' E 011°49'0 0.0
2014-Oct-08 22:31N 58°05' E 011°49'0 0.0
2014-Oct-08 21:31N 58°05' E 011°49'0 0.0
2014-Oct-08 20:07N 58°05' E 011°49'0 0.0
2014-Oct-08 19:19N 58°05' E 011°49'0 0.0
2014-Oct-08 18:31N 58°05' E 011°49'0 0.0
2014-Oct-08 17:22N 58°05' E 011°49'0 0.0
2014-Oct-08 16:28N 58°05' E 011°49'0 0.0
2014-Oct-08 15:25N 58°05' E 011°49'0 0.0
2014-Oct-08 14:28N 58°05' E 011°49'0 0.0
2014-Oct-08 13:34N 58°05' E 011°49'0 0.0
2014-Oct-08 12:28N 58°05' E 011°49'0 0.0
2014-Oct-08 11:28N 58°05' E 011°49'0 0.0
2014-Oct-08 10:22N 58°05' E 011°49'0 0.0
2014-Oct-08 09:31N 58°05' E 011°49'0 0.0
2014-Oct-08 08:22N 58°05' E 011°49'0 0.0
2014-Oct-08 07:31N 58°05' E 011°49'0 0.0
2014-Oct-08 06:33N 58°05' E 011°49'3 2.8
2014-Oct-08 05:34N 58°03' E 011°48'8 8.4
2014-Oct-08 04:34N 57°55' E 011°39'9 8.8
2014-Oct-08 03:34N 57°51' E 011°25'4 3.8
2014-Oct-08 02:33N 57°52' E 011°18'2 2.5
2014-Oct-08 01:34N 57°54' E 011°20'1 1.0
2014-Oct-08 00:34N 57°54' E 011°19'2 2.3
2014-Oct-07 23:34N 57°52' E 011°16'3 2.7
2014-Oct-07 22:33N 57°50' E 011°12'2 2.3
2014-Oct-07 21:34N 57°52' E 011°13'0 0.5
2014-Oct-07 20:34N 57°52' E 011°14'2 1.5
2014-Oct-07 19:34N 57°51' E 011°15'1 0.9
2014-Oct-07 18:34N 57°51' E 011°13'1312.8
2014-Oct-07 17:34N 57°53' E 010°50'1211.7
2014-Oct-07 16:34N 57°51' E 010°28'1211.8
2014-Oct-07 15:33N 57°51' E 010°06'27311.9
2014-Oct-06 16:33N 54°18' E 005°01'1514.7
2014-Oct-06 15:34N 54°05' E 004°49'15613.6
2014-Oct-06 04:06N 51°50' E 002°39'813.6
2014-Oct-06 03:33N 51°43' E 002°32'1414.2
2014-Oct-06 02:33N 51°32' E 002°18'1514.6
2014-Oct-06 01:34N 51°20' E 002°07'1413.9
2014-Oct-06 00:33N 51°09' E 001°52'1615.8
2014-Oct-05 23:33N 50°59' E 001°33'2015.8
2014-Oct-05 22:17N 50°41' E 001°19'1216.0
2014-Oct-05 21:33N 50°33' E 001°05'1515.3
2014-Oct-05 20:33N 50°27' E 000°43'1615.9
2014-Oct-05 19:33N 50°22' E 000°19'  

Dump ship's entire track history